Time;durP1;ratioP1;P1;durP2;ratioP2;P2;SDS_P1;SDS_P2;PMS_P1;PMS_P2;Temp;Humidity;BMP_temperature;BMP_pressure;BME280_temperature;BME280_humidity;BME280_pressure;Samples;Min_cycle;Max_cycle;Signal;HPM_P1;HPM_P2
2021/09/08 00:00:11;;;;;;;11.70;8.60;;;;;;;15.93;64.70;101849.94;683401;28;23266;-68
2021/09/08 00:00:36;;;;;;;11.27;8.85;;;;;;;15.95;64.80;101847.84;680751;28;126442;-67
2021/09/08 00:00:57;;;;;;;12.48;8.65;;;;;;;15.94;65.14;101848.03;683616;28;23435;-69
2021/09/08 00:01:19;;;;;;;11.75;8.82;;;;;;;15.93;64.75;101836.31;684172;28;22373;-68
2021/09/08 00:01:40;;;;;;;11.52;8.48;;;;;;;15.94;64.84;101850.78;683462;28;45292;-68
2021/09/08 00:02:01;;;;;;;13.25;8.77;;;;;;;15.93;64.85;101847.22;684461;28;23456;-69
2021/09/08 00:02:23;;;;;;;11.80;8.55;;;;;;;15.93;64.94;101851.81;684535;28;44389;-68
2021/09/08 00:02:45;;;;;;;10.90;7.90;;;;;;;15.93;64.80;101847.22;682176;28;44454;-67
2021/09/08 00:03:06;;;;;;;12.27;8.43;;;;;;;15.94;64.78;101848.03;682201;28;47541;-69
2021/09/08 00:03:28;;;;;;;10.77;8.35;;;;;;;15.93;64.83;101843.66;683119;28;23381;-67
2021/09/08 00:03:49;;;;;;;11.18;8.40;;;;;;;15.93;65.04;101849.09;682855;28;23327;-69
2021/09/08 00:04:11;;;;;;;11.30;8.95;;;;;;;15.92;65.06;101844.66;684564;28;47051;-69
2021/09/08 00:04:32;;;;;;;11.68;8.60;;;;;;;15.89;64.84;101836.88;684962;28;46400;-69
2021/09/08 00:04:53;;;;;;;10.70;8.20;;;;;;;15.90;64.85;101842.13;685364;28;22437;-68
2021/09/08 00:05:14;;;;;;;12.98;8.48;;;;;;;15.90;64.88;101839.41;684249;28;23460;-68
2021/09/08 00:05:36;;;;;;;12.38;8.20;;;;;;;15.91;64.98;101845.69;683940;28;22388;-69
2021/09/08 00:05:57;;;;;;;10.20;8.38;;;;;;;15.90;64.85;101842.13;682962;28;44380;-69
2021/09/08 00:06:18;;;;;;;11.30;8.70;;;;;;;15.90;65.14;101842.13;683098;28;23435;-68
2021/09/08 00:06:39;;;;;;;12.35;8.52;;;;;;;15.90;65.10;101846.75;683081;28;23494;-69
2021/09/08 00:07:02;;;;;;;13.18;8.95;;;;;;;15.80;64.97;101833.41;683072;28;22361;-68
2021/09/08 00:07:23;;;;;;;12.13;9.02;;;;;;;15.89;65.15;101845.03;682107;28;45319;-69
2021/09/08 00:07:44;;;;;;;12.70;9.00;;;;;;;15.88;64.99;101841.47;682177;28;22406;-68
2021/09/08 00:08:05;;;;;;;10.68;8.38;;;;;;;15.90;64.85;101846.75;682875;28;21550;-68
2021/09/08 00:08:27;;;;;;;10.82;8.25;;;;;;;15.90;64.95;101842.13;682073;28;46314;-68
2021/09/08 00:08:48;;;;;;;11.38;8.73;;;;;;;15.88;64.98;101843.34;681903;28;45234;-68
2021/09/08 00:09:09;;;;;;;11.50;8.80;;;;;;;15.89;65.24;101839.59;685188;28;21524;-68
2021/09/08 00:09:30;;;;;;;10.75;8.55;;;;;;;15.87;65.13;101838.94;685600;28;22413;-69
2021/09/08 00:09:53;;;;;;;11.43;8.85;;;;;;;15.87;64.91;101836.22;684530;28;45257;-69
2021/09/08 00:10:15;;;;;;;11.63;8.63;;;;;;;15.88;65.02;101841.47;683074;28;45247;-68
2021/09/08 00:10:36;;;;;;;10.10;8.15;;;;;;;15.89;65.09;101836.88;684117;28;23283;-67
2021/09/08 00:10:58;;;;;;;12.27;8.90;;;;;;;15.88;64.96;101846.06;683251;28;22396;-69
2021/09/08 00:11:19;;;;;;;11.25;8.32;;;;;;;15.88;65.04;101841.47;680814;28;46166;-69
2021/09/08 00:11:40;;;;;;;10.15;8.00;;;;;;;15.89;65.20;101839.59;682247;28;46296;-69
2021/09/08 00:12:03;;;;;;;9.98;7.97;;;;;;;15.87;65.03;101838.94;685467;28;16368;-69
2021/09/08 00:12:24;;;;;;;11.27;8.32;;;;;;;15.88;64.97;101843.34;684609;28;44379;-69
2021/09/08 00:12:47;;;;;;;11.52;8.38;;;;;;;15.87;65.12;101834.31;684543;28;46399;-69
2021/09/08 00:13:08;;;;;;;12.20;8.48;;;;;;;15.87;65.09;101838.94;684453;28;46574;-67
2021/09/08 00:13:29;;;;;;;11.18;8.23;;;;;;;15.87;64.94;101841.66;685247;28;23468;-69
2021/09/08 00:13:51;;;;;;;11.05;8.05;;;;;;;15.87;65.11;101838.94;684441;28;22448;-68
2021/09/08 00:14:13;;;;;;;11.25;8.20;;;;;;;15.82;64.80;101826.72;682250;28;46364;-68
2021/09/08 00:14:34;;;;;;;11.30;8.48;;;;;;;15.84;64.83;101834.69;682208;28;46392;-69
2021/09/08 00:14:55;;;;;;;11.93;8.90;;;;;;;15.84;64.86;101840.16;683039;28;20860;-69
2021/09/08 00:15:17;;;;;;;12.90;8.65;;;;;;;15.79;65.11;101832.53;682775;28;22190;-68
2021/09/08 00:15:38;;;;;;;11.18;8.00;;;;;;;15.81;64.97;101840.50;682190;28;44461;-68
2021/09/08 00:16:00;;;;;;;11.48;8.20;;;;;;;15.77;65.10;101836.50;682448;28;44143;-69
2021/09/08 00:16:22;;;;;;;11.52;8.77;;;;;;;15.77;65.05;101837.31;686131;28;1497;-68
2021/09/08 00:16:44;;;;;;;11.25;9.02;;;;;;;15.75;65.15;101831.19;685076;28;24255;-69
2021/09/08 00:17:06;;;;;;;11.38;9.02;;;;;;;15.74;65.33;101832.22;684245;28;45253;-68
2021/09/08 00:17:27;;;;;;;10.48;8.50;;;;;;;15.73;65.36;101835.13;684622;28;45278;-69
2021/09/08 00:17:48;;;;;;;11.18;8.27;;;;;;;15.73;65.26;101832.41;684461;28;23320;-68
2021/09/08 00:18:10;;;;;;;12.65;8.75;;;;;;;15.73;65.39;101835.97;684944;28;23393;-69
2021/09/08 00:18:31;;;;;;;13.10;8.35;;;;;;;15.71;65.50;101838.03;682494;28;45951;-69
2021/09/08 00:18:52;;;;;;;10.00;8.13;;;;;;;15.70;65.44;101825.44;683181;28;21518;-69
2021/09/08 00:19:14;;;;;;;10.48;8.23;;;;;;;15.68;65.53;101828.34;682840;28;22390;-68
2021/09/08 00:19:36;;;;;;;12.27;8.68;;;;;;;15.68;65.54;101827.50;682750;28;45266;-69
2021/09/08 00:20:00;;;;;;;10.70;8.38;;;;;;;15.65;65.21;101828.69;679123;28;115022;-68
2021/09/08 00:20:21;;;;;;;11.65;8.68;;;;;;;15.63;65.48;101825.31;681037;28;47435;-69
2021/09/08 00:20:42;;;;;;;10.98;8.15;;;;;;;15.60;65.48;101830.31;682917;28;22365;-69
2021/09/08 00:21:05;;;;;;;11.05;8.13;;;;;;;15.60;65.28;101831.13;682610;28;21539;-67
2021/09/08 00:21:26;;;;;;;11.45;7.88;;;;;;;15.58;65.50;101827.75;680108;29;69470;-67
2021/09/08 00:21:47;;;;;;;9.35;7.72;;;;;;;15.59;65.64;101824.00;682483;28;22394;-69
2021/09/08 00:22:08;;;;;;;10.02;8.38;;;;;;;15.58;65.52;101829.63;682468;28;23453;-67
2021/09/08 00:22:31;;;;;;;11.90;8.60;;;;;;;15.57;65.43;101831.50;682998;28;23426;-68
2021/09/08 00:22:52;;;;;;;11.00;8.20;;;;;;;15.55;65.34;101828.13;680889;28;69359;-68
2021/09/08 00:23:13;;;;;;;10.48;8.20;;;;;;;15.55;65.52;101836.31;682845;28;23433;-69
2021/09/08 00:23:34;;;;;;;11.05;8.23;;;;;;;15.54;65.68;101834.59;682761;28;22210;-67
2021/09/08 00:23:57;;;;;;;11.07;7.97;;;;;;;15.53;65.52;101838.34;682782;28;23510;-69
2021/09/08 00:24:18;;;;;;;11.18;8.15;;;;;;;15.53;65.64;101834.78;681914;28;45250;-69
2021/09/08 00:24:39;;;;;;;11.57;8.52;;;;;;;15.51;65.83;101829.50;683033;28;21564;-69
2021/09/08 00:25:00;;;;;;;12.75;8.55;;;;;;;15.50;65.46;101833.25;683072;28;23534;-69
2021/09/08 00:25:22;;;;;;;12.18;8.70;;;;;;;15.49;65.51;101835.16;681897;28;46197;-69
2021/09/08 00:25:43;;;;;;;12.40;8.75;;;;;;;15.48;65.87;101833.44;682295;28;46450;-69
2021/09/08 00:26:04;;;;;;;12.75;9.07;;;;;;;15.42;65.69;101823.31;682930;28;22412;-65
2021/09/08 00:26:25;;;;;;;11.57;9.18;;;;;;;15.46;65.82;101831.94;683123;28;21505;-69
2021/09/08 00:26:47;;;;;;;11.73;9.00;;;;;;;15.45;66.07;101833.84;682969;28;23753;-68
2021/09/08 00:27:08;;;;;;;13.93;9.05;;;;;;;15.45;65.90;101835.69;681781;28;46538;-67
2021/09/08 00:27:29;;;;;;;10.40;8.77;;;;;;;15.44;66.16;101834.03;684061;28;23477;-68
2021/09/08 00:27:52;;;;;;;12.80;8.50;;;;;;;15.42;66.29;101833.34;682300;28;22413;-67
2021/09/08 00:28:17;;;;;;;11.07;8.40;;;;;;;15.42;66.35;101828.75;682058;28;46288;-69
2021/09/08 00:28:44;;;;;;;12.25;8.32;;;;;;;15.44;66.14;101831.28;678287;28;136299;-68
2021/09/08 00:29:05;;;;;;;11.07;8.40;;;;;;;15.42;66.26;101831.47;680442;28;92083;-69
2021/09/08 00:29:27;;;;;;;10.55;8.38;;;;;;;15.44;66.05;101836.75;680963;28;46563;-67
2021/09/08 00:29:50;;;;;;;11.70;8.48;;;;;;;15.44;66.27;101834.84;680506;28;70147;-69
2021/09/08 00:30:14;;;;;;;12.07;8.48;;;;;;;15.44;66.10;101836.75;679534;28;93678;-68
2021/09/08 00:30:38;;;;;;;12.55;8.80;;;;;;;15.44;65.99;101839.47;680695;28;93331;-68
2021/09/08 00:30:59;;;;;;;13.38;8.52;;;;;;;15.46;66.12;101831.94;682399;28;23408;-69
2021/09/08 00:31:21;;;;;;;13.02;8.90;;;;;;;15.48;66.27;101833.44;683193;28;21359;-69
2021/09/08 00:31:47;;;;;;;11.80;8.77;;;;;;;15.49;66.02;101834.31;680726;28;92154;-69
2021/09/08 00:32:09;;;;;;;10.45;7.95;;;;;;;15.50;66.10;101831.41;680118;28;90739;-69
2021/09/08 00:32:31;;;;;;;9.82;7.93;;;;;;;15.49;66.17;101826.13;681485;28;69453;-67
2021/09/08 00:32:53;;;;;;;11.50;8.57;;;;;;;15.53;66.17;101838.34;682986;28;22410;-69
2021/09/08 00:33:14;;;;;;;11.38;8.77;;;;;;;15.54;65.83;101833.75;682082;28;46386;-69
2021/09/08 00:33:37;;;;;;;10.15;8.80;;;;;;;15.55;65.95;101839.03;681375;28;69335;-68
2021/09/08 00:33:58;;;;;;;10.60;8.48;;;;;;;15.58;65.65;101835.94;682935;28;23530;-69
2021/09/08 00:34:21;;;;;;;11.20;8.32;;;;;;;15.60;65.60;101838.47;682468;28;45374;-69
2021/09/08 00:34:42;;;;;;;13.32;8.43;;;;;;;15.59;65.56;101837.59;682264;28;44398;-69
2021/09/08 00:35:05;;;;;;;12.95;8.75;;;;;;;15.62;65.58;101839.13;682266;28;44371;-69
2021/09/08 00:35:26;;;;;;;11.93;8.35;;;;;;;15.63;65.33;101843.56;681702;28;46343;-69
2021/09/08 00:35:49;;;;;;;10.27;8.40;;;;;;;15.62;65.45;101833.69;681968;28;46135;-69
2021/09/08 00:36:11;;;;;;;9.73;8.52;;;;;;;15.63;65.58;101838.94;681430;28;66780;-67
2021/09/08 00:36:32;;;;;;;9.60;8.25;;;;;;;15.63;65.38;101838.94;682987;28;23496;-69
2021/09/08 00:36:53;;;;;;;12.80;8.63;;;;;;;15.64;65.22;101840.66;683415;28;23464;-68
2021/09/08 00:37:16;;;;;;;12.93;9.13;;;;;;;15.60;65.25;101833.88;681159;28;67289;-69
2021/09/08 00:37:40;;;;;;;11.68;8.80;;;;;;;15.65;65.42;101838.75;682103;28;46318;-67
2021/09/08 00:38:02;;;;;;;10.45;8.27;;;;;;;15.66;65.38;101837.75;680707;28;92026;-68
2021/09/08 00:38:24;;;;;;;10.70;8.05;;;;;;;15.66;65.28;101835.03;682904;28;23520;-68
2021/09/08 00:38:46;;;;;;;9.82;8.27;;;;;;;15.67;65.28;101832.13;681235;28;69458;-69
2021/09/08 00:39:08;;;;;;;9.98;8.23;;;;;;;15.69;65.19;101842.81;683123;28;21563;-68
2021/09/08 00:39:29;;;;;;;9.68;8.13;;;;;;;15.67;65.17;101834.84;682400;28;45281;-68
2021/09/08 00:39:50;;;;;;;10.57;8.32;;;;;;;15.70;65.13;101840.94;683043;28;22386;-69
2021/09/08 00:40:13;;;;;;;12.13;8.27;;;;;;;15.69;64.87;101840.09;680862;29;46347;-68
2021/09/08 00:40:37;;;;;;;11.57;8.15;;;;;;;15.70;64.95;101835.50;680162;28;69423;-68
2021/09/08 00:40:58;;;;;;;10.48;8.05;;;;;;;15.67;64.99;101840.28;681808;28;46338;-68
2021/09/08 00:41:20;;;;;;;14.00;8.48;;;;;;;15.64;65.15;101829.75;682317;28;43776;-68
2021/09/08 00:41:43;;;;;;;11.70;8.25;;;;;;;15.65;64.69;101834.16;681616;28;67505;-69
2021/09/08 00:42:11;;;;;;;11.48;8.45;;;;;;;15.66;64.88;101843.19;681487;28;69216;-68
2021/09/08 00:42:32;;;;;;;11.20;8.20;;;;;;;15.66;64.96;101838.56;677872;28;160109;-68
2021/09/08 00:42:56;;;;;;;11.52;7.93;;;;;;;15.66;64.88;101838.56;681635;28;92143;-68
2021/09/08 00:43:19;;;;;;;10.27;8.35;;;;;;;15.64;64.81;101837.94;682135;28;68455;-68
2021/09/08 00:43:40;;;;;;;9.95;7.88;;;;;;;15.63;64.82;101833.50;681134;29;23474;-70
2021/09/08 00:44:07;;;;;;;10.38;7.82;;;;;;;15.61;64.95;101835.56;681770;28;52463;-69
2021/09/08 00:44:29;;;;;;;10.95;8.40;;;;;;;15.63;64.93;101840.84;680003;28;137333;-69
2021/09/08 00:44:51;;;;;;;11.07;8.20;;;;;;;15.62;65.20;101839.13;683807;28;22333;-69
2021/09/08 00:45:13;;;;;;;11.45;8.63;;;;;;;15.60;65.00;101836.59;682532;28;67482;-67
2021/09/08 00:45:34;;;;;;;9.25;8.07;;;;;;;15.62;64.75;101839.13;682398;28;46308;-69
2021/09/08 00:45:56;;;;;;;10.48;8.10;;;;;;;15.60;64.87;101838.47;683044;28;23542;-69
2021/09/08 00:46:19;;;;;;;11.52;8.35;;;;;;;15.60;64.88;101833.03;684691;28;46421;-69
2021/09/08 00:46:43;;;;;;;11.18;8.65;;;;;;;15.57;64.96;101834.22;682852;28;92213;-68
2021/09/08 00:47:05;;;;;;;10.48;8.50;;;;;;;15.58;65.10;101840.50;682866;28;92320;-68
2021/09/08 00:47:27;;;;;;;10.85;8.43;;;;;;;15.57;65.17;101830.66;685272;28;23290;-69
2021/09/08 00:47:51;;;;;;;12.27;8.90;;;;;;;15.49;64.82;101831.59;683072;28;67537;-68
2021/09/08 00:48:12;;;;;;;12.15;8.18;;;;;;;15.52;65.26;101839.38;682885;28;67418;-68
2021/09/08 00:48:33;;;;;;;11.75;8.65;;;;;;;15.48;65.08;101832.59;685586;28;23474;-68
2021/09/08 00:48:55;;;;;;;12.10;8.88;;;;;;;15.49;65.33;101834.31;685396;28;21303;-68
2021/09/08 00:49:17;;;;;;;10.35;8.68;;;;;;;15.47;65.13;101839.09;684835;28;21544;-68
2021/09/08 00:49:38;;;;;;;10.32;8.27;;;;;;;15.45;65.36;101830.25;683746;28;44203;-69
2021/09/08 00:50:04;;;;;;;12.07;8.50;;;;;;;15.43;65.59;101829.59;680480;28;115355;-68
2021/09/08 00:50:25;;;;;;;13.13;8.73;;;;;;;15.41;65.51;101832.50;681119;28;46445;-67
2021/09/08 00:50:48;;;;;;;11.98;8.40;;;;;;;15.37;65.65;101833.88;682888;28;21514;-68
2021/09/08 00:51:10;;;;;;;14.35;8.90;;;;;;;15.39;65.56;101839.13;679443;28;92002;-68
2021/09/08 00:51:32;;;;;;;13.57;8.90;;;;;;;15.37;65.80;101833.88;681191;28;45266;-69
2021/09/08 00:51:55;;;;;;;11.25;8.55;;;;;;;15.37;65.78;101842.03;681325;28;45239;-68
2021/09/08 00:52:18;;;;;;;11.25;8.43;;;;;;;15.36;65.84;101831.34;680542;28;93449;-68
2021/09/08 00:52:40;;;;;;;13.10;8.73;;;;;;;15.35;65.82;101841.38;683347;28;45070;-68
2021/09/08 00:53:02;;;;;;;13.93;8.82;;;;;;;15.33;65.73;101832.56;684457;28;45236;-65
2021/09/08 00:53:25;;;;;;;12.23;8.85;;;;;;;15.30;65.54;101836.50;685147;28;45110;-69
2021/09/08 00:53:51;;;;;;;10.98;8.57;;;;;;;15.29;65.60;101836.66;681027;28;138034;-68
2021/09/08 00:54:13;;;;;;;11.95;8.55;;;;;;;15.28;65.60;101837.69;682433;28;69189;-68
2021/09/08 00:54:35;;;;;;;13.57;9.25;;;;;;;15.26;65.82;101845.19;683156;28;44421;-69
2021/09/08 00:55:04;;;;;;;13.10;8.75;;;;;;;15.24;65.73;101839.09;679442;28;137602;-68
2021/09/08 00:55:27;;;;;;;10.93;8.80;;;;;;;15.21;65.84;101844.91;679564;28;92273;-69
2021/09/08 00:55:49;;;;;;;11.50;9.27;;;;;;;15.17;66.05;101836.22;681369;28;69412;-68
2021/09/08 00:56:12;;;;;;;9.68;8.65;;;;;;;15.16;65.75;101850.00;682322;28;44442;-68
2021/09/08 00:56:36;;;;;;;10.75;8.43;;;;;;;15.11;66.02;101840.53;681426;28;67122;-69
2021/09/08 00:56:59;;;;;;;10.77;8.40;;;;;;;15.09;66.09;101845.31;679423;28;113571;-68
2021/09/08 00:57:22;;;;;;;11.95;8.73;;;;;;;15.06;66.20;101842.09;682047;28;46348;-68
2021/09/08 00:57:45;;;;;;;12.15;8.40;;;;;;;15.05;66.32;101840.41;681122;28;70406;-68
2021/09/08 00:58:10;;;;;;;14.63;8.15;;;;;;;15.04;66.34;101846.88;678864;28;114320;-69
2021/09/08 00:58:32;;;;;;;12.20;8.00;;;;;;;15.02;66.36;101844.34;679577;28;91054;-68
2021/09/08 00:58:56;;;;;;;10.30;8.23;;;;;;;15.01;66.49;101844.50;679336;28;92119;-67
2021/09/08 00:59:20;;;;;;;12.13;8.40;;;;;;;14.99;66.57;101847.41;680534;28;69445;-68
2021/09/08 00:59:44;;;;;;;11.38;8.20;;;;;;;14.98;66.46;101842.16;679708;28;69338;-68
2021/09/08 01:00:08;;;;;;;11.07;8.38;;;;;;;14.95;66.63;101837.91;680897;28;90690;-68
2021/09/08 01:00:30;;;;;;;11.15;8.18;;;;;;;14.95;66.88;101849.66;680323;28;92481;-69
2021/09/08 01:00:51;;;;;;;10.70;8.10;;;;;;;14.95;66.73;101844.22;682889;28;23327;-69
2021/09/08 01:01:14;;;;;;;10.93;8.38;;;;;;;14.96;66.76;101845.06;683026;28;23461;-68
2021/09/08 01:01:36;;;;;;;12.93;8.55;;;;;;;14.98;66.71;101844.88;681773;28;70208;-69
2021/09/08 01:02:00;;;;;;;13.23;8.75;;;;;;;14.99;67.09;101841.97;681713;28;67514;-68
2021/09/08 01:02:24;;;;;;;11.88;8.70;;;;;;;15.00;66.81;101846.41;680031;28;114646;-69
2021/09/08 01:02:50;;;;;;;11.45;8.70;;;;;;;15.01;67.02;101853.50;679115;28;139118;-69
2021/09/08 01:03:12;;;;;;;11.25;8.48;;;;;;;15.02;66.78;101840.78;682421;28;46248;-67
2021/09/08 01:03:35;;;;;;;12.60;8.45;;;;;;;15.01;66.70;101839.91;681647;28;67495;-68
2021/09/08 01:03:57;;;;;;;11.02;8.40;;;;;;;15.02;66.64;101841.63;682464;28;45238;-69
2021/09/08 01:04:24;;;;;;;12.95;7.95;;;;;;;15.04;66.59;101842.28;678919;28;137707;-68
2021/09/08 01:04:45;;;;;;;12.60;8.18;;;;;;;15.05;66.61;101846.69;683356;28;22409;-69
2021/09/08 01:05:12;;;;;;;12.98;8.95;;;;;;;15.05;66.48;101843.13;681789;28;59841;-69
2021/09/08 01:05:36;;;;;;;13.00;8.98;;;;;;;15.06;66.67;101845.69;678989;28;115262;-69
2021/09/08 01:06:00;;;;;;;12.40;8.85;;;;;;;15.07;66.38;101843.78;680587;28;92326;-68
2021/09/08 01:06:21;;;;;;;10.13;8.20;;;;;;;15.07;66.42;101839.19;682933;28;21714;-69
2021/09/08 01:06:47;;;;;;;12.18;8.90;;;;;;;15.07;66.37;101839.19;679411;28;136365;-68
2021/09/08 01:07:10;;;;;;;14.07;9.07;;;;;;;15.08;66.52;101842.78;680386;28;90890;-68
2021/09/08 01:07:33;;;;;;;11.32;8.60;;;;;;;15.07;66.66;101841.06;681910;28;45244;-68
2021/09/08 01:07:56;;;;;;;13.15;9.65;;;;;;;15.08;66.71;101840.91;680472;28;92204;-68
2021/09/08 01:08:18;;;;;;;11.18;9.10;;;;;;;15.10;66.29;101843.44;682069;28;47317;-68
2021/09/08 01:08:40;;;;;;;10.18;8.80;;;;;;;15.11;66.73;101845.16;681621;28;45265;-68
2021/09/08 01:09:03;;;;;;;11.13;8.95;;;;;;;15.09;66.64;101842.59;681744;28;70165;-69
2021/09/08 01:09:25;;;;;;;11.65;8.85;;;;;;;15.11;66.44;101835.09;682132;28;45331;-69
2021/09/08 01:09:48;;;;;;;12.43;9.07;;;;;;;15.12;66.36;101831.34;682954;28;22284;-68
2021/09/08 01:10:10;;;;;;;12.23;8.85;;;;;;;15.14;66.36;101837.47;681906;28;69473;-69
2021/09/08 01:10:31;;;;;;;10.95;8.77;;;;;;;15.14;66.17;101834.75;681839;28;45318;-68
2021/09/08 01:10:52;;;;;;;9.85;8.52;;;;;;;15.17;66.19;101836.22;683057;28;21535;-67
2021/09/08 01:11:16;;;;;;;11.75;8.52;;;;;;;15.18;66.35;101842.53;681013;28;69503;-69
2021/09/08 01:11:37;;;;;;;12.52;8.60;;;;;;;15.18;66.12;101837.09;680807;28;47426;-68
2021/09/08 01:12:00;;;;;;;11.05;8.65;;;;;;;15.18;66.19;101843.38;681069;28;44400;-67
2021/09/08 01:12:21;;;;;;;9.98;8.60;;;;;;;15.19;66.17;101844.22;682318;28;46305;-68
2021/09/08 01:12:43;;;;;;;13.82;8.95;;;;;;;15.21;66.05;101842.19;683754;28;938;-67
2021/09/08 01:13:05;;;;;;;11.85;9.07;;;;;;;15.21;66.18;101836.75;681216;28;67588;-69
2021/09/08 01:13:29;;;;;;;13.20;9.20;;;;;;;15.21;66.17;101837.56;680533;28;92536;-67
2021/09/08 01:13:51;;;;;;;14.07;9.55;;;;;;;15.23;65.81;101838.22;682212;28;45240;-69
2021/09/08 01:14:13;;;;;;;12.27;9.40;;;;;;;15.24;65.86;101837.22;681887;28;46287;-68
2021/09/08 01:14:35;;;;;;;11.88;9.20;;;;;;;15.26;65.90;101834.31;682101;28;46410;-67
2021/09/08 01:14:56;;;;;;;12.95;8.90;;;;;;;15.27;65.92;101841.47;682133;28;45274;-67
2021/09/08 01:15:18;;;;;;;10.57;8.80;;;;;;;15.28;65.84;101844.00;681820;28;44218;-69
2021/09/08 01:15:40;;;;;;;10.63;9.10;;;;;;;15.28;65.67;101834.97;683308;28;21520;-68
2021/09/08 01:16:02;;;;;;;11.90;9.40;;;;;;;15.27;65.70;101836.00;680891;29;46105;-68
2021/09/08 01:16:23;;;;;;;14.98;9.30;;;;;;;15.23;65.44;101834.66;680913;28;44425;-68
2021/09/08 01:16:48;;;;;;;12.82;8.68;;;;;;;15.26;65.58;101839.75;681669;29;22379;-66
2021/09/08 01:17:10;;;;;;;15.18;9.10;;;;;;;15.26;65.63;101842.47;679604;28;115260;-68
2021/09/08 01:17:31;;;;;;;12.65;9.25;;;;;;;15.25;65.83;101836.19;680097;29;67506;-68
2021/09/08 01:17:52;;;;;;;11.05;8.95;;;;;;;15.23;65.74;101838.22;680878;28;22382;-68
2021/09/08 01:18:13;;;;;;;10.55;8.80;;;;;;;15.24;65.74;101841.81;681643;28;20857;-67
2021/09/08 01:18:36;;;;;;;10.27;8.80;;;;;;;15.24;65.78;101841.81;683126;28;22394;-68
2021/09/08 01:18:57;;;;;;;10.88;9.00;;;;;;;15.24;65.51;101836.38;681395;28;67178;-69
2021/09/08 01:19:18;;;;;;;9.90;8.85;;;;;;;15.23;65.71;101838.22;682959;28;23752;-67
2021/09/08 01:19:39;;;;;;;11.18;8.73;;;;;;;15.26;65.48;101845.19;681449;28;22416;-68
2021/09/08 01:20:01;;;;;;;12.13;8.93;;;;;;;15.25;65.70;101838.91;682747;28;22378;-66
2021/09/08 01:20:23;;;;;;;12.02;9.02;;;;;;;15.27;65.59;101839.56;682193;28;23448;-68
2021/09/08 01:20:44;;;;;;;11.57;8.50;;;;;;;15.28;65.81;101843.13;681033;28;46367;-69
2021/09/08 01:21:05;;;;;;;10.57;8.48;;;;;;;15.28;65.47;101846.72;681647;28;21601;-68
2021/09/08 01:21:26;;;;;;;9.50;8.50;;;;;;;15.27;65.42;101831.41;683201;28;22384;-69
2021/09/08 01:21:49;;;;;;;11.00;8.68;;;;;;;15.28;65.37;101833.13;682721;28;44094;-69
2021/09/08 01:22:10;;;;;;;11.00;8.88;;;;;;;15.30;65.50;101839.22;682694;28;45216;-69
2021/09/08 01:22:31;;;;;;;10.30;8.80;;;;;;;15.28;65.50;101832.25;683375;28;21548;-69
2021/09/08 01:22:55;;;;;;;11.38;9.13;;;;;;;15.29;65.52;101832.06;682597;28;46327;-68
2021/09/08 01:23:16;;;;;;;10.45;9.20;;;;;;;15.28;65.40;101832.25;680554;28;68305;-69
2021/09/08 01:23:37;;;;;;;10.00;8.82;;;;;;;15.29;65.39;101833.94;682449;28;21530;-67
2021/09/08 01:24:04;;;;;;;11.10;8.90;;;;;;;15.29;65.53;101834.78;683055;28;22410;-69
2021/09/08 01:24:26;;;;;;;12.23;9.38;;;;;;;15.29;65.46;101837.50;679413;28;137778;-68
2021/09/08 01:24:48;;;;;;;10.80;8.88;;;;;;;15.30;65.46;101835.66;682702;28;46398;-68
2021/09/08 01:25:09;;;;;;;11.27;8.90;;;;;;;15.29;65.53;101832.06;682553;28;44396;-68
2021/09/08 01:25:30;;;;;;;11.52;8.98;;;;;;;15.29;65.28;101825.78;682922;28;21373;-69
2021/09/08 01:25:51;;;;;;;12.43;8.85;;;;;;;15.31;65.54;101829.16;683626;28;22410;-68
2021/09/08 01:26:13;;;;;;;11.13;9.02;;;;;;;15.31;65.57;101835.47;682368;28;46336;-68
2021/09/08 01:26:35;;;;;;;10.65;9.23;;;;;;;15.31;65.24;101827.31;681421;29;46410;-68
2021/09/08 01:26:57;;;;;;;10.70;9.40;;;;;;;15.30;65.42;101828.31;682072;28;22357;-69
2021/09/08 01:27:18;;;;;;;12.00;9.35;;;;;;;15.31;65.44;101835.47;682321;28;47066;-69
2021/09/08 01:27:40;;;;;;;12.15;9.02;;;;;;;15.31;65.42;101831.88;682867;28;22388;-68
2021/09/08 01:28:01;;;;;;;9.93;8.52;;;;;;;15.32;65.46;101836.31;682546;28;46347;-68
2021/09/08 01:28:22;;;;;;;10.57;8.85;;;;;;;15.31;65.42;101835.47;683170;28;22267;-68
2021/09/08 01:28:43;;;;;;;11.85;9.07;;;;;;;15.30;65.32;101831.03;682978;28;22366;-67
2021/09/08 01:29:05;;;;;;;12.02;9.35;;;;;;;15.29;65.42;101829.34;683538;28;22491;-68
2021/09/08 01:29:27;;;;;;;12.13;9.02;;;;;;;15.32;65.54;101834.41;682722;28;45221;-67
2021/09/08 01:29:48;;;;;;;10.45;9.05;;;;;;;15.33;65.29;101827.13;682505;28;46512;-68
2021/09/08 01:30:10;;;;;;;10.57;8.73;;;;;;;15.31;65.25;101826.44;683385;28;23654;-68
2021/09/08 01:30:31;;;;;;;12.20;8.77;;;;;;;15.33;65.23;101829.84;682210;28;45250;-67
2021/09/08 01:30:53;;;;;;;12.65;9.10;;;;;;;15.32;65.18;101823.53;683402;28;21549;-69
2021/09/08 01:31:17;;;;;;;11.60;9.40;;;;;;;15.34;65.17;101834.25;682206;28;45060;-68
2021/09/08 01:31:38;;;;;;;9.98;8.68;;;;;;;15.35;65.14;101833.22;681167;28;90356;-68
2021/09/08 01:31:59;;;;;;;10.23;8.70;;;;;;;15.34;65.28;101826.06;683352;28;21302;-68
2021/09/08 01:32:21;;;;;;;11.75;9.00;;;;;;;15.33;65.00;101832.56;683239;28;22404;-68
2021/09/08 01:32:42;;;;;;;11.18;9.30;;;;;;;15.32;64.99;101831.69;682718;28;46481;-68
2021/09/08 01:33:07;;;;;;;10.73;8.98;;;;;;;15.32;65.19;101833.59;684424;28;993;-69
2021/09/08 01:33:28;;;;;;;10.02;8.73;;;;;;;15.31;65.21;101829.16;678900;28;114991;-68
2021/09/08 01:33:50;;;;;;;10.85;9.27;;;;;;;15.28;65.07;101830.38;682728;28;21285;-67
2021/09/08 01:34:11;;;;;;;10.35;9.27;;;;;;;15.27;65.30;101834.13;681262;28;46596;-68
2021/09/08 01:34:32;;;;;;;10.43;9.25;;;;;;;15.27;65.11;101828.69;681992;29;22423;-68
2021/09/08 01:34:53;;;;;;;11.10;9.02;;;;;;;15.26;65.25;101834.31;681964;28;22420;-67
2021/09/08 01:35:17;;;;;;;10.00;8.98;;;;;;;15.26;64.97;101828.88;681912;29;21601;-68
2021/09/08 01:35:39;;;;;;;10.27;8.48;;;;;;;15.26;65.50;101826.97;681097;28;92187;-69
2021/09/08 01:36:00;;;;;;;12.55;9.13;;;;;;;15.25;65.34;101828.03;683408;28;22235;-68
2021/09/08 01:36:21;;;;;;;11.45;8.98;;;;;;;15.26;65.52;101831.59;682695;28;46531;-67
2021/09/08 01:36:43;;;;;;;11.85;9.35;;;;;;;15.25;65.29;101828.03;683206;28;23523;-69
2021/09/08 01:37:04;;;;;;;11.75;9.50;;;;;;;15.27;65.23;101833.28;682333;28;44505;-69
2021/09/08 01:37:25;;;;;;;10.48;8.85;;;;;;;15.28;65.32;101832.25;683322;28;23472;-65
2021/09/08 01:37:48;;;;;;;11.45;9.18;;;;;;;15.26;65.29;101829.69;685327;28;22423;-68
2021/09/08 01:38:10;;;;;;;10.15;8.85;;;;;;;15.28;65.19;101830.38;685031;28;46329;-69
2021/09/08 01:38:31;;;;;;;11.40;9.05;;;;;;;15.28;65.27;101833.13;684104;28;67641;-67
2021/09/08 01:38:52;;;;;;;10.32;8.95;;;;;;;15.27;65.45;101822.41;685697;28;22349;-69
2021/09/08 01:39:18;;;;;;;11.98;9.00;;;;;;;15.28;65.57;101832.25;686051;28;22453;-67
2021/09/08 01:39:39;;;;;;;14.05;9.43;;;;;;;15.28;65.66;101826.81;681114;28;138556;-67
2021/09/08 01:40:00;;;;;;;11.55;9.10;;;;;;;15.29;65.60;101831.22;683332;28;22204;-68
2021/09/08 01:40:22;;;;;;;11.50;9.80;;;;;;;15.28;65.25;101832.25;682999;28;23617;-67
2021/09/08 01:40:44;;;;;;;11.13;9.15;;;;;;;15.28;65.60;101834.97;681294;28;44405;-68
2021/09/08 01:41:05;;;;;;;10.02;8.98;;;;;;;15.28;65.37;101829.53;683732;28;1616;-69
2021/09/08 01:41:26;;;;;;;11.85;9.20;;;;;;;15.26;65.32;101826.97;685216;28;43197;-68
2021/09/08 01:41:50;;;;;;;13.05;9.55;;;;;;;15.27;65.30;101828.69;686226;28;22242;-69
2021/09/08 01:42:11;;;;;;;13.00;9.30;;;;;;;15.29;65.20;101831.22;683687;28;92292;-68
2021/09/08 01:42:32;;;;;;;11.32;9.43;;;;;;;15.29;65.46;101828.50;686260;28;23419;-69
2021/09/08 01:42:54;;;;;;;11.18;9.10;;;;;;;15.28;65.45;101833.13;685894;28;23485;-69